createdAt,value
2024-01-28T00:00:49.420Z,4.19
2024-01-28T00:01:46.910Z,4.06
2024-01-28T00:02:44.519Z,3.91
2024-01-28T00:03:41.444Z,4.07
2024-01-28T00:04:38.300Z,4.02
2024-01-28T00:05:35.403Z,3.77
2024-01-28T00:06:32.382Z,3.33
2024-01-28T00:07:29.342Z,4.09
2024-01-28T00:08:27.462Z,3.70
2024-01-28T00:09:24.530Z,4.43
2024-01-28T00:10:21.488Z,4.60
2024-01-28T00:11:18.538Z,4.03
2024-01-28T00:12:15.615Z,4.41
2024-01-28T00:13:12.926Z,4.36
2024-01-28T00:14:10.267Z,3.69
2024-01-28T00:15:08.189Z,4.13
2024-01-28T00:16:05.474Z,3.67
2024-01-28T00:17:02.477Z,3.94
2024-01-28T00:17:59.505Z,3.81
2024-01-28T00:18:59.658Z,3.65
2024-01-28T00:19:56.736Z,3.63
2024-01-28T00:20:53.630Z,3.69
2024-01-28T00:21:50.501Z,3.99
2024-01-28T00:22:47.347Z,3.34
2024-01-28T00:23:44.266Z,3.65
2024-01-28T00:24:41.383Z,2.16
2024-01-28T00:25:38.327Z,2.88
2024-01-28T00:26:39.520Z,2.93
2024-01-28T00:27:36.668Z,3.58
2024-01-28T00:28:33.647Z,3.64
2024-01-28T00:29:30.574Z,3.66
2024-01-28T00:30:33.328Z,2.27
2024-01-28T00:31:30.310Z,3.82
2024-01-28T00:32:27.439Z,4.01
2024-01-28T00:33:24.433Z,3.77
2024-01-28T00:34:21.421Z,3.08
2024-01-28T00:35:18.961Z,3.71
2024-01-28T00:36:17.113Z,3.50
2024-01-28T00:37:14.672Z,3.78
2024-01-28T00:38:11.575Z,3.17
2024-01-28T00:39:14.736Z,3.29
2024-01-28T00:40:12.065Z,2.92
2024-01-28T00:41:08.862Z,3.54
2024-01-28T00:42:06.516Z,3.47
2024-01-28T00:43:04.571Z,3.47
2024-01-28T00:44:02.600Z,3.31
2024-01-28T00:44:59.653Z,1.54
2024-01-28T00:45:57.070Z,2.15
2024-01-28T00:46:56.619Z,3.41
2024-01-28T00:47:53.576Z,3.17
2024-01-28T00:48:50.997Z,1.92
2024-01-28T00:49:48.118Z,2.98
2024-01-28T00:50:45.040Z,1.88
2024-01-28T00:51:41.942Z,3.33
2024-01-28T00:52:38.807Z,3.31
2024-01-28T00:53:36.371Z,3.37
2024-01-28T00:54:33.410Z,2.75
2024-01-28T00:55:30.319Z,3.00
2024-01-28T00:56:27.161Z,1.68
2024-01-28T00:57:24.058Z,2.29
2024-01-28T00:58:21.092Z,2.83
2024-01-28T00:59:17.990Z,2.43
2024-01-28T01:00:15.341Z,3.18
2024-01-28T01:01:13.610Z,3.38
2024-01-28T01:02:10.718Z,3.25
2024-01-28T01:03:07.664Z,3.30
2024-01-28T01:04:04.833Z,2.69
2024-01-28T01:05:01.780Z,2.67
2024-01-28T01:06:00.017Z,3.41
2024-01-28T01:06:57.042Z,3.43
2024-01-28T01:07:53.980Z,3.61
2024-01-28T01:08:51.248Z,3.20
2024-01-28T01:09:48.158Z,3.59
2024-01-28T01:10:45.214Z,3.63
2024-01-28T01:11:44.555Z,3.35
2024-01-28T01:12:41.470Z,3.60
2024-01-28T01:13:38.362Z,3.57
2024-01-28T01:14:36.744Z,2.79
2024-01-28T01:15:33.766Z,2.58
2024-01-28T01:16:30.923Z,2.89
2024-01-28T01:17:27.788Z,2.68
2024-01-28T01:18:25.417Z,2.59
2024-01-28T01:19:22.444Z,3.06
2024-01-28T01:20:19.437Z,3.42
2024-01-28T01:21:16.436Z,1.70
2024-01-28T01:22:13.321Z,3.43
2024-01-28T01:23:28.827Z,3.67
2024-01-28T01:24:25.638Z,3.61
2024-01-28T01:25:22.505Z,3.72
2024-01-28T01:26:19.416Z,3.55
2024-01-28T01:27:16.406Z,3.33
2024-01-28T01:28:13.532Z,2.55
2024-01-28T01:29:10.442Z,2.35
2024-01-28T01:30:08.152Z,3.55
2024-01-28T01:31:05.264Z,3.47
2024-01-28T01:32:02.169Z,2.62
2024-01-28T01:32:59.233Z,2.68
2024-01-28T01:33:56.418Z,2.91
2024-01-28T01:34:54.170Z,2.71
2024-01-28T01:35:51.233Z,3.15
2024-01-28T01:36:48.145Z,3.43
2024-01-28T01:37:45.088Z,3.52
2024-01-28T01:38:41.903Z,3.56
2024-01-28T01:39:38.799Z,3.10
2024-01-28T01:40:36.505Z,3.58
2024-01-28T01:41:33.496Z,3.75
2024-01-28T01:42:30.432Z,3.43
2024-01-28T01:43:27.296Z,3.69
2024-01-28T01:44:25.190Z,3.79
2024-01-28T01:45:22.137Z,3.29
2024-01-28T01:46:19.203Z,3.44
2024-01-28T01:47:16.085Z,2.77
2024-01-28T01:48:14.219Z,3.38
2024-01-28T01:49:13.066Z,3.75
2024-01-28T01:50:12.572Z,3.94
2024-01-28T01:51:11.198Z,2.70
2024-01-28T01:52:09.169Z,3.49
2024-01-28T01:53:07.124Z,3.42
2024-01-28T01:54:04.542Z,3.72
2024-01-28T01:55:02.878Z,3.60
2024-01-28T01:56:00.231Z,3.69
2024-01-28T01:56:57.935Z,3.46
2024-01-28T01:57:55.794Z,2.98
2024-01-28T01:58:54.574Z,3.25
2024-01-28T01:59:51.521Z,2.74
2024-01-28T02:00:48.516Z,2.84
2024-01-28T02:01:45.473Z,3.29
2024-01-28T02:02:46.014Z,3.08
2024-01-28T02:03:43.927Z,3.20
2024-01-28T02:04:40.982Z,2.97
2024-01-28T02:05:39.611Z,2.75
2024-01-28T02:06:36.483Z,3.06
2024-01-28T02:07:33.363Z,3.19
2024-01-28T02:08:30.414Z,3.08
2024-01-28T02:09:27.600Z,3.15
2024-01-28T02:10:26.497Z,2.83
2024-01-28T02:11:24.283Z,3.07
2024-01-28T02:12:21.239Z,2.75
2024-01-28T02:13:18.185Z,2.96
2024-01-28T02:14:25.999Z,3.06
2024-01-28T02:15:23.239Z,2.37
2024-01-28T02:16:20.137Z,2.53
2024-01-28T02:17:17.098Z,3.28
2024-01-28T02:18:14.090Z,3.36
2024-01-28T02:19:11.173Z,3.40
2024-01-28T02:20:08.666Z,2.87
2024-01-28T02:21:05.946Z,3.20
2024-01-28T02:22:02.851Z,3.34
2024-01-28T02:22:59.805Z,3.28
2024-01-28T02:23:56.743Z,3.17
2024-01-28T02:24:53.670Z,2.91
2024-01-28T02:25:50.797Z,2.58
2024-01-28T02:26:47.668Z,2.99
2024-01-28T02:27:47.762Z,2.43
2024-01-28T02:28:44.842Z,3.12
2024-01-28T02:29:41.753Z,2.54
2024-01-28T02:30:38.613Z,3.25
2024-01-28T02:31:35.487Z,3.26
2024-01-28T02:32:32.470Z,1.57
2024-01-28T02:33:29.659Z,3.45
2024-01-28T02:34:26.814Z,2.59
2024-01-28T02:35:23.877Z,3.30
2024-01-28T02:36:20.939Z,2.96
2024-01-28T02:37:17.909Z,3.31
2024-01-28T02:38:14.799Z,3.05
2024-01-28T02:39:11.737Z,3.01
2024-01-28T02:40:09.978Z,1.59
2024-01-28T02:41:06.863Z,2.82
2024-01-28T02:42:03.931Z,2.78
2024-01-28T02:43:01.344Z,2.99
2024-01-28T02:43:58.214Z,3.13
2024-01-28T02:44:55.189Z,2.33
2024-01-28T02:45:52.811Z,3.23
2024-01-28T02:46:49.676Z,2.58
2024-01-28T02:47:46.919Z,3.17
2024-01-28T02:48:43.928Z,3.08
2024-01-28T02:49:41.331Z,2.56
2024-01-28T02:50:38.281Z,3.20
2024-01-28T02:51:35.156Z,3.31
2024-01-28T02:52:32.070Z,3.51
2024-01-28T02:53:28.958Z,3.34
2024-01-28T02:54:25.934Z,3.26
2024-01-28T02:55:24.289Z,3.27
2024-01-28T02:56:21.236Z,3.16
2024-01-28T02:57:18.105Z,2.24
2024-01-28T02:58:14.963Z,3.15
2024-01-28T02:59:11.896Z,3.03
2024-01-28T03:00:09.466Z,2.98
2024-01-28T03:01:06.406Z,3.14
2024-01-28T03:02:04.289Z,2.92
2024-01-28T03:03:01.181Z,3.12
2024-01-28T03:03:58.049Z,3.00
2024-01-28T03:04:54.946Z,2.91
2024-01-28T03:05:51.752Z,2.85
2024-01-28T03:06:48.750Z,3.01
2024-01-28T03:07:45.647Z,2.54
2024-01-28T03:08:42.463Z,2.65
2024-01-28T03:09:39.569Z,3.65
2024-01-28T03:10:36.542Z,3.62
2024-01-28T03:11:33.431Z,3.45
2024-01-28T03:12:30.330Z,3.55
2024-01-28T03:13:27.256Z,3.33
2024-01-28T03:14:24.152Z,2.69
2024-01-28T03:15:21.060Z,3.48
2024-01-28T03:16:18.624Z,2.93
2024-01-28T03:17:15.478Z,2.71
2024-01-28T03:18:13.498Z,3.54
2024-01-28T03:19:10.574Z,3.62
2024-01-28T03:20:08.086Z,3.23
2024-01-28T03:21:05.021Z,3.67
2024-01-28T03:22:01.834Z,3.32
2024-01-28T03:22:58.707Z,3.25
2024-01-28T03:23:55.657Z,3.82
2024-01-28T03:24:53.528Z,3.13
2024-01-28T03:25:50.416Z,3.87
2024-01-28T03:26:47.201Z,3.83
2024-01-28T03:27:44.311Z,3.58
2024-01-28T03:28:42.632Z,3.61
2024-01-28T03:29:39.658Z,3.04
2024-01-28T03:30:36.508Z,3.67
2024-01-28T03:31:33.404Z,3.16
2024-01-28T03:32:30.268Z,3.65
2024-01-28T03:33:27.228Z,3.18
2024-01-28T03:34:24.423Z,2.69
2024-01-28T03:35:21.502Z,3.48
2024-01-28T03:36:18.396Z,2.87
2024-01-28T03:37:15.330Z,3.15
2024-01-28T03:38:12.236Z,2.97
2024-01-28T03:39:09.139Z,3.43
2024-01-28T03:40:06.954Z,3.58
2024-01-28T03:41:03.993Z,3.42
2024-01-28T03:42:00.867Z,3.43
2024-01-28T03:42:57.651Z,3.28
2024-01-28T03:43:54.537Z,2.54
2024-01-28T03:44:51.433Z,2.67
2024-01-28T03:45:48.403Z,2.96
2024-01-28T03:46:45.247Z,3.23
2024-01-28T03:47:44.582Z,2.95
2024-01-28T03:48:42.821Z,2.97
2024-01-28T03:49:39.823Z,2.85
2024-01-28T03:50:36.822Z,2.69
2024-01-28T03:51:33.741Z,2.47
2024-01-28T03:52:30.666Z,2.85
2024-01-28T03:53:27.640Z,2.28
2024-01-28T03:54:24.578Z,1.93
2024-01-28T03:55:22.234Z,1.66
2024-01-28T03:56:19.165Z,2.65
2024-01-28T03:57:16.111Z,2.19
2024-01-28T03:58:12.977Z,2.51
2024-01-28T03:59:10.551Z,2.52
2024-01-28T04:00:08.643Z,2.67
2024-01-28T04:01:05.756Z,2.35
2024-01-28T04:02:02.771Z,1.70
2024-01-28T04:03:02.105Z,2.46
2024-01-28T04:03:59.245Z,2.48
2024-01-28T04:04:56.859Z,1.41
2024-01-28T04:05:53.772Z,2.29
2024-01-28T04:06:50.689Z,2.44
2024-01-28T04:07:47.658Z,1.72
2024-01-28T04:08:44.609Z,2.33
2024-01-28T04:09:41.571Z,2.21
2024-01-28T04:10:39.204Z,2.54
2024-01-28T04:11:36.179Z,2.71
2024-01-28T04:12:33.100Z,2.65
2024-01-28T04:13:30.349Z,2.57
2024-01-28T04:14:27.184Z,2.31
2024-01-28T04:15:24.146Z,1.71
2024-01-28T04:16:22.183Z,1.69
2024-01-28T04:17:19.091Z,2.42
2024-01-28T04:18:16.170Z,2.03
2024-01-28T04:19:13.165Z,2.37
2024-01-28T04:20:10.374Z,1.43
2024-01-28T04:21:07.250Z,2.29
2024-01-28T04:22:04.172Z,1.04
2024-01-28T04:23:03.256Z,2.26
2024-01-28T04:24:02.291Z,1.80
2024-01-28T04:24:59.209Z,2.19
2024-01-28T04:25:56.073Z,1.22
2024-01-28T04:26:54.820Z,1.94
2024-01-28T04:27:51.872Z,1.91
2024-01-28T04:28:48.821Z,1.90
2024-01-28T04:29:45.753Z,1.23
2024-01-28T04:30:43.441Z,1.39
2024-01-28T04:31:46.577Z,1.42
2024-01-28T04:32:45.355Z,1.82
2024-01-28T04:33:43.103Z,1.87
2024-01-28T04:34:40.360Z,1.50
2024-01-28T04:35:38.639Z,1.30
2024-01-28T04:36:35.526Z,1.48
2024-01-28T04:37:32.545Z,1.46
2024-01-28T04:38:29.599Z,2.34
2024-01-28T04:39:26.444Z,2.38
2024-01-28T04:40:23.367Z,1.40
2024-01-28T04:41:20.272Z,1.97
2024-01-28T04:42:23.256Z,1.71
2024-01-28T04:43:20.264Z,2.16
2024-01-28T04:44:17.213Z,1.51
2024-01-28T04:45:14.398Z,1.47
2024-01-28T04:46:15.577Z,1.47
2024-01-28T04:47:12.389Z,1.48
2024-01-28T04:48:09.497Z,1.92
2024-01-28T04:49:06.512Z,1.82
2024-01-28T04:50:03.851Z,1.06
2024-01-28T04:51:00.906Z,1.21
2024-01-28T04:51:57.875Z,1.99
2024-01-28T04:52:54.800Z,1.84
2024-01-28T04:53:51.637Z,1.21
2024-01-28T04:54:48.634Z,0.97
2024-01-28T04:55:45.841Z,1.82
2024-01-28T04:56:42.768Z,1.98
2024-01-28T04:57:39.703Z,2.06
2024-01-28T04:58:36.708Z,1.84
2024-01-28T04:59:34.160Z,1.25
2024-01-28T05:00:31.004Z,1.21
2024-01-28T05:01:27.970Z,1.09
2024-01-28T05:02:24.909Z,1.72
2024-01-28T05:03:22.680Z,1.19
2024-01-28T05:04:19.659Z,1.47
2024-01-28T05:05:16.715Z,2.13
2024-01-28T05:06:13.681Z,1.31
2024-01-28T05:07:11.023Z,2.00
2024-01-28T05:08:08.195Z,2.16
2024-01-28T05:09:07.651Z,1.34
2024-01-28T05:10:05.178Z,2.30
2024-01-28T05:11:02.653Z,1.72
2024-01-28T05:12:00.708Z,1.83
2024-01-28T05:12:57.610Z,1.74
2024-01-28T05:13:54.513Z,1.54
2024-01-28T05:14:51.439Z,1.56
2024-01-28T05:15:49.636Z,1.47
2024-01-28T05:16:49.224Z,2.12
2024-01-28T05:17:46.392Z,1.23
2024-01-28T05:18:43.407Z,1.51
2024-01-28T05:19:40.338Z,0.48
2024-01-28T05:20:37.270Z,1.91
2024-01-28T05:21:34.283Z,1.74
2024-01-28T05:22:31.207Z,1.59
2024-01-28T05:23:28.080Z,1.61
2024-01-28T05:24:24.988Z,1.13
2024-01-28T05:25:21.857Z,1.64
2024-01-28T05:26:18.806Z,1.91
2024-01-28T05:27:15.869Z,1.55
2024-01-28T05:28:13.222Z,1.42
2024-01-28T05:29:10.039Z,0.80
2024-01-28T05:30:07.725Z,1.42
2024-01-28T05:31:04.877Z,1.40
2024-01-28T05:32:01.714Z,0.77
2024-01-28T05:32:58.681Z,1.65
2024-01-28T05:33:56.210Z,1.62
2024-01-28T05:34:53.327Z,0.97
2024-01-28T05:35:50.357Z,1.78
2024-01-28T05:36:50.947Z,1.67
2024-01-28T05:37:47.930Z,1.47
2024-01-28T05:38:45.741Z,1.72
2024-01-28T05:39:42.729Z,1.03
2024-01-28T05:40:39.630Z,1.50
2024-01-28T05:41:36.505Z,0.94
2024-01-28T05:42:33.400Z,1.12
2024-01-28T05:43:30.286Z,0.18
2024-01-28T05:44:27.126Z,1.17
2024-01-28T05:45:24.055Z,0.63
2024-01-28T05:46:20.956Z,1.55
2024-01-28T05:47:17.856Z,1.30
2024-01-28T05:48:15.054Z,1.24
2024-01-28T05:49:12.873Z,1.78
2024-01-28T05:50:10.476Z,1.47
2024-01-28T05:51:07.420Z,0.97
2024-01-28T05:52:04.541Z,0.75
2024-01-28T05:53:01.545Z,1.67
2024-01-28T05:53:58.686Z,1.67
2024-01-28T05:54:55.683Z,1.83
2024-01-28T05:55:55.726Z,1.65
2024-01-28T05:56:52.615Z,1.22
2024-01-28T05:57:49.526Z,1.49
2024-01-28T05:58:46.403Z,1.92
2024-01-28T05:59:43.389Z,1.23
2024-01-28T06:00:40.303Z,1.71
2024-01-28T06:01:37.200Z,1.05
2024-01-28T06:02:34.143Z,1.60
2024-01-28T06:03:32.381Z,1.01
2024-01-28T06:04:29.410Z,1.69
2024-01-28T06:05:26.302Z,1.42
2024-01-28T06:06:23.198Z,1.69
2024-01-28T06:07:20.166Z,2.10
2024-01-28T06:08:17.920Z,2.21
2024-01-28T06:09:14.987Z,2.03
2024-01-28T06:10:11.973Z,2.24
2024-01-28T06:11:08.834Z,1.96
2024-01-28T06:12:05.948Z,2.02
2024-01-28T06:13:03.087Z,1.55
2024-01-28T06:13:59.965Z,2.20
2024-01-28T06:15:03.401Z,1.86
2024-01-28T06:16:00.773Z,1.53
2024-01-28T06:16:57.778Z,1.81
2024-01-28T06:17:54.859Z,2.26
2024-01-28T06:18:51.893Z,2.16
2024-01-28T06:19:48.980Z,2.50
2024-01-28T06:20:46.654Z,2.33
2024-01-28T06:21:43.566Z,2.26
2024-01-28T06:22:40.435Z,2.20
2024-01-28T06:23:37.945Z,2.50
2024-01-28T06:24:36.699Z,2.43
2024-01-28T06:25:34.021Z,1.55
2024-01-28T06:26:32.761Z,2.21
2024-01-28T06:27:30.894Z,1.59
2024-01-28T06:28:27.777Z,2.28
2024-01-28T06:29:24.802Z,2.31
2024-01-28T06:30:21.750Z,1.15
2024-01-28T06:31:20.114Z,2.06
2024-01-28T06:32:17.208Z,1.85
2024-01-28T06:33:14.534Z,2.00
2024-01-28T06:34:11.734Z,1.91
2024-01-28T06:35:09.207Z,1.51
2024-01-28T06:36:06.736Z,1.75
2024-01-28T06:37:03.879Z,1.92
2024-01-28T06:38:00.782Z,2.11
2024-01-28T06:38:59.027Z,1.71
2024-01-28T06:39:56.202Z,1.94
2024-01-28T06:40:53.102Z,2.03
2024-01-28T06:41:51.369Z,1.83
2024-01-28T06:42:48.306Z,2.23
2024-01-28T06:43:45.149Z,1.83
2024-01-28T06:44:41.940Z,2.01
2024-01-28T06:45:38.806Z,2.18
2024-01-28T06:46:35.683Z,2.32
2024-01-28T06:47:32.555Z,2.20
2024-01-28T06:48:29.540Z,2.25
2024-01-28T06:49:27.115Z,2.59
2024-01-28T06:50:24.117Z,1.84
2024-01-28T06:51:21.070Z,2.63
2024-01-28T06:52:17.980Z,2.96
2024-01-28T06:53:14.972Z,1.38
2024-01-28T06:54:11.933Z,1.96
2024-01-28T06:55:09.334Z,2.41
2024-01-28T06:56:06.698Z,1.50
2024-01-28T06:57:03.906Z,2.19
2024-01-28T06:58:01.588Z,1.53
2024-01-28T06:58:58.436Z,2.20
2024-01-28T06:59:55.406Z,1.59
2024-01-28T07:00:52.384Z,2.04
2024-01-28T07:01:49.370Z,1.79
2024-01-28T07:02:47.417Z,2.47
2024-01-28T07:03:44.464Z,1.68
2024-01-28T07:04:41.438Z,2.02
2024-01-28T07:05:39.652Z,1.70
2024-01-28T07:06:36.631Z,2.24
2024-01-28T07:07:33.577Z,1.55
2024-01-28T07:08:30.743Z,1.82
2024-01-28T07:09:27.645Z,2.36
2024-01-28T07:10:27.524Z,2.14
2024-01-28T07:11:25.901Z,1.58
2024-01-28T07:12:22.797Z,1.83
2024-01-28T07:13:19.680Z,2.12
2024-01-28T07:14:18.295Z,1.65
2024-01-28T07:15:15.314Z,2.24
2024-01-28T07:16:13.628Z,2.26
2024-01-28T07:17:10.684Z,1.39
2024-01-28T07:18:08.335Z,2.21
2024-01-28T07:19:05.384Z,1.68
2024-01-28T07:20:02.591Z,1.71
2024-01-28T07:20:59.544Z,2.35
2024-01-28T07:21:56.463Z,2.44
2024-01-28T07:22:53.328Z,2.32
2024-01-28T07:23:50.365Z,2.35
2024-01-28T07:24:47.280Z,2.02
2024-01-28T07:25:44.220Z,2.08
2024-01-28T07:26:41.404Z,2.76
2024-01-28T07:27:38.279Z,2.85
2024-01-28T07:28:35.378Z,2.81
2024-01-28T07:29:32.233Z,2.17
2024-01-28T07:30:29.190Z,2.66
2024-01-28T07:31:26.515Z,2.75
2024-01-28T07:32:23.320Z,2.68
2024-01-28T07:33:20.213Z,2.65
2024-01-28T07:34:19.592Z,2.30
2024-01-28T07:35:17.108Z,2.82
2024-01-28T07:36:15.886Z,3.00
2024-01-28T07:37:12.861Z,2.62
2024-01-28T07:38:10.444Z,3.06
2024-01-28T07:39:08.324Z,2.55
2024-01-28T07:40:05.965Z,2.19
2024-01-28T07:41:03.001Z,2.79
2024-01-28T07:41:59.938Z,2.69
2024-01-28T07:42:57.841Z,2.87
2024-01-28T07:43:54.837Z,2.43
2024-01-28T07:44:51.808Z,2.66
2024-01-28T07:45:48.639Z,2.70
2024-01-28T07:46:45.597Z,2.56
2024-01-28T07:47:43.500Z,2.43
2024-01-28T07:48:41.025Z,2.04
2024-01-28T07:49:38.149Z,2.86
2024-01-28T07:50:35.093Z,1.97
2024-01-28T07:51:32.011Z,2.54
2024-01-28T07:52:28.931Z,2.12
2024-01-28T07:53:26.583Z,2.86
2024-01-28T07:54:23.498Z,2.79
2024-01-28T07:55:20.507Z,2.79
2024-01-28T07:56:17.662Z,2.72
2024-01-28T07:57:14.545Z,2.29
2024-01-28T07:58:11.398Z,3.37
2024-01-28T07:59:08.381Z,3.19
2024-01-28T08:00:11.447Z,3.38
2024-01-28T08:01:09.169Z,3.25
2024-01-28T08:02:06.300Z,2.92
2024-01-28T08:03:03.259Z,3.25
2024-01-28T08:04:00.985Z,2.74
2024-01-28T08:04:58.244Z,3.22
2024-01-28T08:05:55.125Z,2.10
2024-01-28T08:06:51.989Z,2.96
2024-01-28T08:07:48.861Z,3.34
2024-01-28T08:08:45.713Z,2.67
2024-01-28T08:09:43.341Z,3.63
2024-01-28T08:10:40.432Z,3.61
2024-01-28T08:11:37.318Z,3.60
2024-01-28T08:12:34.457Z,3.65
2024-01-28T08:13:31.653Z,3.24
2024-01-28T08:14:29.000Z,2.26
2024-01-28T08:15:26.042Z,3.60
2024-01-28T08:16:23.197Z,3.87
2024-01-28T08:17:20.107Z,3.42
2024-01-28T08:18:17.200Z,3.79
2024-01-28T08:19:14.159Z,3.43
2024-01-28T08:20:11.587Z,4.04
2024-01-28T08:21:08.410Z,2.21
2024-01-28T08:23:02.793Z,3.34
2024-01-28T08:23:59.758Z,3.80
2024-01-28T08:24:56.727Z,3.43
2024-01-28T08:25:55.306Z,4.32
2024-01-28T08:26:52.371Z,4.27
2024-01-28T08:27:49.400Z,4.04
2024-01-28T08:28:46.289Z,4.26
2024-01-28T08:29:43.115Z,4.30
2024-01-28T08:30:40.032Z,4.04
2024-01-28T08:31:36.952Z,3.92
2024-01-28T08:32:33.986Z,2.89
2024-01-28T08:33:31.048Z,2.97
2024-01-28T08:34:28.192Z,3.98
2024-01-28T08:35:25.633Z,3.88
2024-01-28T08:36:22.611Z,4.10
2024-01-28T08:37:22.873Z,3.88
2024-01-28T08:38:19.835Z,3.49
2024-01-28T08:39:16.944Z,3.27
2024-01-28T08:40:13.996Z,3.32
2024-01-28T08:41:10.915Z,3.78
2024-01-28T08:42:07.874Z,3.56
2024-01-28T08:43:06.581Z,3.92
2024-01-28T08:44:06.460Z,3.46
2024-01-28T08:45:03.818Z,4.33
2024-01-28T08:46:02.744Z,3.45
2024-01-28T08:46:59.994Z,2.32
2024-01-28T08:47:56.858Z,4.29
2024-01-28T08:48:54.281Z,2.65
2024-01-28T08:49:51.894Z,4.24
2024-01-28T08:50:50.109Z,3.34
2024-01-28T08:51:47.076Z,3.90
2024-01-28T08:52:44.240Z,3.08
2024-01-28T08:53:43.560Z,3.69
2024-01-28T08:54:40.489Z,2.68
2024-01-28T08:55:37.435Z,4.09
2024-01-28T08:56:34.670Z,4.35
2024-01-28T08:57:33.464Z,3.65
2024-01-28T08:58:32.074Z,4.38
2024-01-28T08:59:28.958Z,3.76
2024-01-28T09:00:25.806Z,4.54
2024-01-28T09:01:23.159Z,4.63
2024-01-28T09:02:20.158Z,4.00
2024-01-28T09:03:17.164Z,4.81
2024-01-28T09:04:14.410Z,4.35
2024-01-28T09:05:11.839Z,4.23
2024-01-28T09:06:09.329Z,4.36
2024-01-28T09:07:06.443Z,4.62
2024-01-28T09:08:04.350Z,4.10
2024-01-28T09:09:04.732Z,4.60
2024-01-28T09:10:01.955Z,4.59
2024-01-28T09:11:02.867Z,4.85
2024-01-28T09:11:59.913Z,4.95
2024-01-28T09:12:57.098Z,5.06
2024-01-28T09:13:53.971Z,5.31
2024-01-28T09:14:50.850Z,4.60
2024-01-28T09:15:47.724Z,4.94
2024-01-28T09:16:44.742Z,5.60
2024-01-28T09:17:45.333Z,5.23
2024-01-28T09:18:43.938Z,5.24
2024-01-28T09:19:41.633Z,4.77
2024-01-28T09:20:38.558Z,5.01
2024-01-28T09:21:36.954Z,4.88
2024-01-28T09:22:35.415Z,5.45
2024-01-28T09:23:32.363Z,5.42
2024-01-28T09:24:29.327Z,3.79
2024-01-28T09:25:29.859Z,5.18
2024-01-28T09:26:26.957Z,5.33
2024-01-28T09:27:24.719Z,4.53
2024-01-28T09:28:21.684Z,5.33
2024-01-28T09:29:18.548Z,4.28
2024-01-28T09:30:15.790Z,4.97
2024-01-28T09:31:14.017Z,4.34
2024-01-28T09:32:10.871Z,4.94
2024-01-28T09:33:07.729Z,4.84
2024-01-28T09:34:05.537Z,5.15
2024-01-28T09:35:02.595Z,4.71
2024-01-28T09:35:59.898Z,5.39
2024-01-28T09:36:57.302Z,4.43
2024-01-28T09:37:56.253Z,5.13
2024-01-28T09:38:53.109Z,5.22
2024-01-28T09:39:50.945Z,5.10
2024-01-28T09:40:49.354Z,4.71
2024-01-28T09:41:55.593Z,4.54
2024-01-28T09:43:17.640Z,4.96
2024-01-28T09:44:14.562Z,4.75
2024-01-28T09:45:12.557Z,4.51
2024-01-28T09:46:09.905Z,4.74
2024-01-28T09:47:07.660Z,4.54
2024-01-28T09:48:05.852Z,3.99
2024-01-28T09:49:04.542Z,4.32
2024-01-28T09:50:05.401Z,4.95
2024-01-28T09:51:02.865Z,5.02
2024-01-28T09:51:59.781Z,5.34
2024-01-28T09:52:56.725Z,4.49
2024-01-28T09:53:53.888Z,5.38
2024-01-28T09:54:51.031Z,4.58
2024-01-28T09:55:48.427Z,4.98
2024-01-28T09:56:46.307Z,4.89
2024-01-28T09:57:45.208Z,4.75
2024-01-28T09:58:43.224Z,5.20
2024-01-28T09:59:40.182Z,5.16
2024-01-28T10:00:38.538Z,5.15
2024-01-28T10:01:36.556Z,5.11
2024-01-28T10:02:33.576Z,5.07
2024-01-28T10:03:31.708Z,5.02
2024-01-28T10:04:29.415Z,5.09
2024-01-28T10:05:26.465Z,4.68
2024-01-28T10:06:23.423Z,4.20
2024-01-28T10:07:20.566Z,4.61
2024-01-28T10:08:17.548Z,4.88
2024-01-28T10:09:14.400Z,4.81
2024-01-28T10:10:14.556Z,5.21
2024-01-28T10:11:12.531Z,4.79
2024-01-28T10:12:11.902Z,5.24
2024-01-28T10:13:08.852Z,4.41
2024-01-28T10:14:06.563Z,4.72
2024-01-28T10:15:17.854Z,4.62
2024-01-28T10:16:14.714Z,4.88
2024-01-28T10:17:11.668Z,5.01
2024-01-28T10:18:09.698Z,5.31
2024-01-28T10:19:07.291Z,4.93
2024-01-28T10:20:08.476Z,5.40
2024-01-28T10:21:05.864Z,5.35
2024-01-28T10:22:02.850Z,4.80
2024-01-28T10:23:01.660Z,4.35
2024-01-28T10:23:59.100Z,5.25
2024-01-28T10:24:56.013Z,4.45
2024-01-28T10:25:53.626Z,4.05
2024-01-28T10:26:50.533Z,5.12
2024-01-28T10:27:49.699Z,4.94
2024-01-28T10:28:46.728Z,4.22
2024-01-28T10:29:45.443Z,4.82
2024-01-28T10:30:42.352Z,4.31
2024-01-28T10:31:39.725Z,5.23
2024-01-28T10:32:36.746Z,5.28
2024-01-28T10:33:34.200Z,4.77
2024-01-28T10:34:31.291Z,4.88
2024-01-28T10:35:29.414Z,5.07
2024-01-28T10:36:27.191Z,5.21
2024-01-28T10:37:28.198Z,5.27
2024-01-28T10:38:26.218Z,5.05
2024-01-28T10:39:23.849Z,5.32
2024-01-28T10:40:22.133Z,5.52
2024-01-28T10:41:20.104Z,5.60
2024-01-28T10:42:21.723Z,4.98
2024-01-28T10:43:27.514Z,5.25
2024-01-28T10:44:24.933Z,5.61
2024-01-28T10:45:25.343Z,5.15
2024-01-28T10:46:32.853Z,4.97
2024-01-28T10:47:35.163Z,4.95
2024-01-28T10:48:33.713Z,4.82
2024-01-28T10:49:33.478Z,4.65
2024-01-28T10:50:34.124Z,9.89
2024-01-28T10:51:34.168Z,9.69
2024-01-28T10:52:33.717Z,6.38
2024-01-28T10:53:32.129Z,6.40
2024-01-28T10:54:30.118Z,5.72
2024-01-28T10:55:29.540Z,5.11
2024-01-28T10:56:28.234Z,5.10
2024-01-28T10:57:27.090Z,5.00
2024-01-28T10:58:24.013Z,5.48
2024-01-28T10:59:20.898Z,6.28
2024-01-28T11:00:22.132Z,4.94
2024-01-28T11:01:20.124Z,6.18
2024-01-28T11:02:20.033Z,6.02
2024-01-28T11:03:17.511Z,6.37
2024-01-28T11:04:14.878Z,5.91
2024-01-28T11:05:13.068Z,4.95
2024-01-28T11:06:10.187Z,5.57
2024-01-28T11:07:07.474Z,5.51
2024-01-28T11:08:05.553Z,4.72
2024-01-28T11:09:02.451Z,5.50
2024-01-28T11:10:03.145Z,5.70
2024-01-28T11:11:00.780Z,6.52
2024-01-28T11:11:58.124Z,5.11
2024-01-28T11:12:56.039Z,5.24
2024-01-28T11:13:53.034Z,4.80
2024-01-28T11:14:52.900Z,5.01
2024-01-28T11:15:49.934Z,5.21
2024-01-28T11:16:50.102Z,5.62
2024-01-28T11:17:48.282Z,5.64
2024-01-28T11:19:17.614Z,5.07
2024-01-28T11:20:18.688Z,4.63
2024-01-28T11:21:21.106Z,4.95
2024-01-28T11:22:18.200Z,5.05
2024-01-28T11:23:18.674Z,4.78
2024-01-28T11:24:15.613Z,4.89
2024-01-28T11:25:12.502Z,4.88
2024-01-28T11:26:19.429Z,5.24
2024-01-28T11:27:16.768Z,4.71
2024-01-28T11:28:16.407Z,5.08
2024-01-28T11:29:13.697Z,4.69
2024-01-28T11:30:14.214Z,4.51
2024-01-28T11:31:26.486Z,5.30
2024-01-28T11:32:35.318Z,4.78
2024-01-28T11:33:36.243Z,4.75
2024-01-28T11:34:33.411Z,4.69
2024-01-28T11:35:30.528Z,5.16
2024-01-28T11:36:30.910Z,4.91
2024-01-28T11:37:29.380Z,4.47
2024-01-28T11:38:35.902Z,4.69
2024-01-28T11:39:46.134Z,4.62
2024-01-28T11:40:53.663Z,4.76
2024-01-28T11:41:55.022Z,5.19
2024-01-28T11:42:56.579Z,5.03
2024-01-28T11:43:53.848Z,4.97
2024-01-28T11:44:50.830Z,5.20
2024-01-28T11:45:48.282Z,4.94
2024-01-28T11:46:45.956Z,4.88
2024-01-28T11:47:42.879Z,4.67
2024-01-28T11:48:39.947Z,3.75
2024-01-28T11:49:37.020Z,4.03
2024-01-28T11:50:33.937Z,3.88
2024-01-28T11:51:33.008Z,4.68
2024-01-28T11:52:29.951Z,4.71
2024-01-28T11:53:26.870Z,3.69
2024-01-28T11:54:23.781Z,3.34
2024-01-28T11:55:20.839Z,3.95
2024-01-28T11:56:17.858Z,3.52
2024-01-28T11:57:16.119Z,4.27
2024-01-28T11:58:14.539Z,4.34
2024-01-28T11:59:12.801Z,4.15
2024-01-28T12:00:14.339Z,4.72
2024-01-28T12:01:11.730Z,4.63
2024-01-28T12:02:09.837Z,4.56
2024-01-28T12:03:07.930Z,4.53
2024-01-28T12:04:05.864Z,4.05
2024-01-28T12:05:04.861Z,3.90
2024-01-28T12:06:02.136Z,4.49
2024-01-28T12:06:59.214Z,3.90
2024-01-28T12:07:59.213Z,4.98
2024-01-28T12:08:57.658Z,5.50
2024-01-28T12:09:55.819Z,5.27
2024-01-28T12:11:04.557Z,4.03
2024-01-28T12:12:01.754Z,4.23
2024-01-28T12:13:01.549Z,2.13
2024-01-28T12:13:58.447Z,4.32
2024-01-28T12:14:59.699Z,4.56
2024-01-28T12:16:02.604Z,4.27
2024-01-28T12:17:00.138Z,3.70
2024-01-28T12:17:57.951Z,4.56
2024-01-28T12:18:57.363Z,4.55
2024-01-28T12:19:54.627Z,3.85
2024-01-28T12:20:52.630Z,4.23
2024-01-28T12:21:49.596Z,3.55
2024-01-28T12:22:46.501Z,1.76
2024-01-28T12:23:46.936Z,4.34
2024-01-28T12:24:47.684Z,3.91
2024-01-28T12:25:45.262Z,3.94
2024-01-28T12:26:45.165Z,4.31
2024-01-28T12:27:42.319Z,3.89
2024-01-28T12:28:39.964Z,4.18
2024-01-28T12:29:36.978Z,3.56
2024-01-28T12:30:33.967Z,3.59
2024-01-28T12:31:32.618Z,3.70
2024-01-28T12:32:30.753Z,4.65
2024-01-28T12:33:30.030Z,4.49
2024-01-28T12:34:28.071Z,4.17
2024-01-28T12:35:25.037Z,3.78
2024-01-28T12:36:21.878Z,4.35
2024-01-28T12:37:22.378Z,4.00
2024-01-28T12:38:20.739Z,3.71
2024-01-28T12:39:17.660Z,4.86
2024-01-28T12:40:14.661Z,4.75
2024-01-28T12:41:12.373Z,4.53
2024-01-28T12:42:09.289Z,4.91
2024-01-28T12:43:06.442Z,4.87
2024-01-28T12:44:04.997Z,4.45
2024-01-28T12:45:02.133Z,4.40
2024-01-28T12:46:02.439Z,4.67
2024-01-28T12:46:59.374Z,4.75
2024-01-28T12:47:56.251Z,4.90
2024-01-28T12:48:53.386Z,4.28
2024-01-28T12:49:50.376Z,5.17
2024-01-28T12:50:47.251Z,4.57